Time;durP1;ratioP1;P1;durP2;ratioP2;P2;SDS_P1;SDS_P2;PMS_P1;PMS_P2;Temp;Humidity;BMP_temperature;BMP_pressure;BME280_temperature;BME280_humidity;BME280_pressure;Samples;Min_cycle;Max_cycle;Signal;HPM_P1;HPM_P2
2023/03/14 00:01:43;;;;;;;0.50;0.50;;;;;;;10.76;100.00;98868.97;5048972;28;20075;-62
2023/03/14 00:04:09;;;;;;;0.50;0.50;;;;;;;10.69;100.00;98865.69;5048352;28;20106;-62
2023/03/14 00:06:34;;;;;;;0.60;0.60;;;;;;;10.75;100.00;98880.25;5049474;28;20060;-63
2023/03/14 00:09:00;;;;;;;0.60;0.60;;;;;;;10.70;100.00;98875.59;5048674;28;20373;-62
2023/03/14 00:11:26;;;;;;;0.60;0.60;;;;;;;10.83;97.81;98883.22;5047870;28;20017;-62
2023/03/14 00:13:52;;;;;;;0.70;0.70;;;;;;;10.79;98.13;98867.56;5048282;28;20040;-63
2023/03/14 00:16:18;;;;;;;0.60;0.60;;;;;;;10.71;98.52;98874.47;5049041;28;20411;-63
2023/03/14 00:18:43;;;;;;;0.70;0.70;;;;;;;10.62;98.16;98870.66;5040834;28;20022;-63
2023/03/14 00:21:10;;;;;;;0.52;0.52;;;;;;;10.68;96.90;98863.22;5029647;28;20381;-62
2023/03/14 00:23:37;;;;;;;0.75;0.65;;;;;;;10.59;96.99;98869.31;5045514;28;20492;-63
2023/03/14 00:26:06;;;;;;;1.03;0.70;;;;;;;10.55;96.68;98873.72;5039118;28;20032;-62
2023/03/14 00:28:31;;;;;;;0.60;0.60;;;;;;;10.58;96.35;98883.28;5042729;28;20071;-62
2023/03/14 00:30:57;;;;;;;0.60;0.60;;;;;;;10.55;96.99;98872.91;5029805;28;20053;-62
2023/03/14 00:33:23;;;;;;;0.60;0.60;;;;;;;10.62;93.50;98889.88;5044065;28;20044;-63
2023/03/14 00:35:59;;;;;;;0.80;0.70;;;;;;;10.70;94.26;98894.00;5047876;28;20045;-63
2023/03/14 00:38:25;;;;;;;1.15;0.70;;;;;;;10.61;91.93;98893.72;5048965;28;20060;-62
2023/03/14 00:40:51;;;;;;;0.60;0.60;;;;;;;10.68;91.58;98891.50;5047630;28;20485;-62
2023/03/14 00:43:18;;;;;;;0.70;0.70;;;;;;;10.57;92.06;98895.38;5048558;28;20025;-63
2023/03/14 00:45:43;;;;;;;0.85;0.70;;;;;;;10.51;93.35;98899.25;5030659;28;20488;-62
2023/03/14 00:48:09;;;;;;;0.60;0.60;;;;;;;10.51;91.21;98896.50;5027075;28;20036;-62
2023/03/14 00:50:34;;;;;;;0.77;0.70;;;;;;;10.56;90.86;98896.50;5047676;28;20032;-62
2023/03/14 00:52:59;;;;;;;0.70;0.70;;;;;;;10.53;90.74;98908.00;5047621;28;20510;-63
2023/03/14 00:55:25;;;;;;;0.60;0.60;;;;;;;10.58;89.90;98902.50;5038547;28;20038;-62
2023/03/14 00:57:50;;;;;;;0.60;0.60;;;;;;;10.49;91.30;98909.66;5031553;28;20431;-62
2023/03/14 01:00:16;;;;;;;0.80;0.60;;;;;;;10.49;90.88;98901.44;5048452;28;20048;-62
2023/03/14 01:02:41;;;;;;;0.70;0.70;;;;;;;10.50;90.14;98908.59;5037764;28;20698;-62
2023/03/14 01:05:07;;;;;;;0.85;0.70;;;;;;;10.54;89.49;98899.53;5042937;28;20142;-63
2023/03/14 01:07:33;;;;;;;0.70;0.63;;;;;;;10.47;90.08;98903.63;5044799;28;20029;-62
2023/03/14 01:09:58;;;;;;;0.60;0.60;;;;;;;10.51;89.27;98891.00;5047804;28;20048;-62
2023/03/14 01:12:23;;;;;;;0.60;0.60;;;;;;;10.60;89.14;98892.91;5046075;28;20111;-62
2023/03/14 01:14:48;;;;;;;0.50;0.50;;;;;;;10.58;88.40;98894.28;5047985;28;20052;-62
2023/03/14 01:17:14;;;;;;;0.90;0.80;;;;;;;10.47;90.55;98890.75;5033228;28;20368;-62
2023/03/14 01:19:39;;;;;;;0.68;0.68;;;;;;;10.47;89.74;98888.00;5041288;28;20029;-62
2023/03/14 01:22:04;;;;;;;0.70;0.70;;;;;;;10.38;91.19;98886.91;5044537;28;20033;-62
2023/03/14 01:24:30;;;;;;;0.70;0.70;;;;;;;10.37;90.87;98880.59;5046427;28;20037;-62
2023/03/14 01:26:55;;;;;;;0.70;0.70;;;;;;;10.41;90.62;98885.53;5047358;28;20039;-62
2023/03/14 01:29:20;;;;;;;0.60;0.60;;;;;;;10.33;90.75;98879.50;5039642;28;20155;-62
2023/03/14 01:31:45;;;;;;;0.80;0.75;;;;;;;10.34;90.42;98881.19;5037906;28;20106;-62
2023/03/14 01:34:11;;;;;;;1.02;0.60;;;;;;;10.34;89.79;98872.94;5046829;28;20112;-62
2023/03/14 01:36:36;;;;;;;0.60;0.60;;;;;;;10.38;88.83;98874.00;5041684;28;20444;-63
2023/03/14 01:39:02;;;;;;;0.60;0.60;;;;;;;10.36;89.12;98876.22;5028152;28;20033;-62
2023/03/14 01:41:28;;;;;;;0.93;0.68;;;;;;;10.37;89.80;98872.38;5047735;28;20029;-62
2023/03/14 01:43:53;;;;;;;0.60;0.60;;;;;;;10.38;89.83;98862.22;5045060;28;20025;-62
2023/03/14 01:46:24;;;;;;;0.60;0.60;;;;;;;10.27;90.92;98869.66;5047009;28;20083;-62
2023/03/14 01:49:01;;;;;;;0.70;0.70;;;;;;;10.29;89.92;98858.38;5041823;28;20028;-62
2023/03/14 01:51:29;;;;;;;0.60;0.60;;;;;;;10.30;89.86;98854.56;5047110;28;20123;-63
2023/03/14 01:53:59;;;;;;;;;;;;;;;10.34;89.60;98855.63;5031692;28;20457;-62
2023/03/14 01:56:24;;;;;;;0.68;0.60;;;;;;;10.26;90.09;98839.75;5028464;28;19940;-62
2023/03/14 01:58:51;;;;;;;1.05;0.90;;;;;;;10.27;90.42;98847.69;5045794;28;20674;-62
2023/03/14 02:01:21;;;;;;;0.70;0.70;;;;;;;10.28;91.05;98851.25;5047406;28;20033;-62
2023/03/14 02:03:59;;;;;;;0.70;0.70;;;;;;;10.20;92.18;98843.59;5044390;28;20056;-62
2023/03/14 02:06:31;;;;;;;0.80;0.60;;;;;;;10.13;93.43;98847.41;5027704;28;20029;-62
2023/03/14 02:08:56;;;;;;;0.60;0.60;;;;;;;10.10;93.59;98839.75;5039481;28;20029;-62
2023/03/14 02:11:28;;;;;;;0.73;0.73;;;;;;;10.11;93.55;98835.09;5046071;28;20044;-62
2023/03/14 02:13:54;;;;;;;0.95;0.80;;;;;;;10.02;94.55;98836.75;5045212;28;20024;-62
2023/03/14 02:16:19;;;;;;;0.77;0.75;;;;;;;10.01;94.55;98844.16;5047260;28;20056;-62
2023/03/14 02:18:44;;;;;;;0.60;0.60;;;;;;;10.04;94.26;98840.03;5031054;28;20446;-62
2023/03/14 02:21:18;;;;;;;0.60;0.60;;;;;;;10.01;95.58;98852.38;5028161;28;20041;-62
2023/03/14 02:23:49;;;;;;;0.80;0.73;;;;;;;9.90;97.87;98848.00;5043723;28;20021;-62
2023/03/14 02:26:43;;;;;;;0.70;0.68;;;;;;;10.10;97.60;98833.44;5040168;28;20034;-62
2023/03/14 02:29:08;;;;;;;0.60;0.60;;;;;;;9.76;100.00;98831.28;5025469;28;20377;-62
2023/03/14 02:31:34;;;;;;;0.60;0.60;;;;;;;9.71;100.00;98835.94;5038094;28;20032;-63
2023/03/14 02:34:00;;;;;;;0.60;0.60;;;;;;;9.68;100.00;98825.50;5045348;28;20104;-62
2023/03/14 02:36:27;;;;;;;0.60;0.60;;;;;;;9.76;99.02;98828.53;5041929;28;20125;-62
2023/03/14 02:39:13;;;;;;;0.77;0.70;;;;;;;9.81;97.75;98822.22;5027116;28;20037;-62
2023/03/14 02:41:38;;;;;;;0.98;0.80;;;;;;;9.80;97.70;98824.16;5101934;23;20382;-62
2023/03/14 02:44:04;;;;;;;0.80;0.80;;;;;;;9.77;97.24;98824.69;5078544;28;20024;-62
2023/03/14 02:46:29;;;;;;;0.65;0.65;;;;;;;9.82;97.70;98823.88;5066577;28;20115;-62
2023/03/14 02:49:03;;;;;;;0.60;0.60;;;;;;;9.93;97.04;98822.75;5068566;28;20054;-62
2023/03/14 02:51:28;;;;;;;0.70;0.70;;;;;;;10.00;95.86;98817.81;5066114;28;20036;-63
2023/03/14 02:53:54;;;;;;;0.70;0.70;;;;;;;9.86;97.08;98828.53;5066493;28;20029;-62
2023/03/14 02:56:19;;;;;;;0.80;0.80;;;;;;;9.89;96.95;98827.16;5065975;28;20036;-62
2023/03/14 02:58:45;;;;;;;0.95;0.80;;;;;;;9.94;96.46;98829.09;5065247;28;20036;-62
2023/03/14 03:01:10;;;;;;;0.70;0.70;;;;;;;10.00;95.87;98822.50;5075446;28;20029;-62
2023/03/14 03:03:35;;;;;;;0.65;0.65;;;;;;;9.99;95.93;98823.59;5065718;28;20428;-62
2023/03/14 03:06:01;;;;;;;0.80;0.80;;;;;;;10.01;96.24;98829.63;5070858;28;20021;-62
2023/03/14 03:08:27;;;;;;;0.82;0.82;;;;;;;9.93;97.19;98824.69;5065935;28;20491;-62
2023/03/14 03:10:53;;;;;;;0.90;0.77;;;;;;;9.98;95.68;98824.66;5069400;28;20028;-62
2023/03/14 03:13:18;;;;;;;0.68;0.65;;;;;;;9.97;96.15;98829.34;5070771;28;20077;-62
2023/03/14 03:15:44;;;;;;;0.70;0.68;;;;;;;9.95;96.45;98830.72;5069484;28;20020;-62
2023/03/14 03:18:10;;;;;;;0.70;0.70;;;;;;;10.02;96.31;98828.50;5070684;28;20028;-62
2023/03/14 03:20:35;;;;;;;0.95;0.85;;;;;;;9.97;96.02;98823.84;5089423;28;20032;-62
2023/03/14 03:23:01;;;;;;;0.70;0.70;;;;;;;9.96;96.18;98816.72;5073239;28;20021;-62
2023/03/14 03:25:26;;;;;;;0.70;0.70;;;;;;;10.00;95.80;98817.00;5070289;28;20490;-62
2023/03/14 03:27:52;;;;;;;1.20;0.80;;;;;;;9.95;96.46;98815.09;5069138;28;20028;-62
2023/03/14 03:30:18;;;;;;;0.82;0.75;;;;;;;10.02;95.98;98809.31;5069942;28;20020;-62
2023/03/14 03:32:44;;;;;;;1.00;0.90;;;;;;;9.95;95.83;98806.03;5067782;28;20033;-62
2023/03/14 03:35:09;;;;;;;0.68;0.68;;;;;;;9.97;96.23;98812.06;5069916;28;20029;-62
2023/03/14 03:37:34;;;;;;;0.70;0.70;;;;;;;9.93;96.00;98800.00;5080392;28;20032;-62
2023/03/14 03:40:00;;;;;;;0.80;0.70;;;;;;;9.91;96.49;98802.22;5074531;28;20028;-62
2023/03/14 03:42:28;;;;;;;0.77;0.77;;;;;;;9.90;96.12;98814.28;5087134;28;20077;-62
2023/03/14 03:44:53;;;;;;;0.80;0.80;;;;;;;9.90;96.01;98808.78;5089450;28;20133;-62
2023/03/14 03:47:18;;;;;;;0.80;0.80;;;;;;;9.95;96.05;98808.78;5074892;28;20545;-62
2023/03/14 03:49:44;;;;;;;0.63;0.63;;;;;;;9.91;96.12;98803.03;5068652;28;20410;-62
2023/03/14 03:52:09;;;;;;;0.70;0.70;;;;;;;9.94;95.94;98807.16;5084490;28;20666;-62
2023/03/14 03:54:35;;;;;;;0.63;0.63;;;;;;;9.98;95.27;98802.72;5069422;28;20052;-62
2023/03/14 03:57:00;;;;;;;1.33;0.77;;;;;;;9.88;96.29;98798.94;5069146;28;20060;-62
2023/03/14 03:59:26;;;;;;;1.15;0.70;;;;;;;9.86;95.92;98795.63;5067954;28;20044;-62
2023/03/14 04:01:51;;;;;;;0.65;0.63;;;;;;;9.86;95.63;98801.09;5069143;28;20051;-62
2023/03/14 04:04:16;;;;;;;0.90;0.65;;;;;;;9.88;95.94;98796.19;5067766;28;20040;-62
2023/03/14 04:06:42;;;;;;;0.60;0.60;;;;;;;9.94;95.28;98796.19;5082337;28;20103;-62
2023/03/14 04:09:08;;;;;;;0.60;0.60;;;;;;;9.98;94.05;98800.00;5071815;28;20079;-62
2023/03/14 04:11:34;;;;;;;0.65;0.65;;;;;;;9.91;95.33;98797.53;5083436;28;20386;-62
2023/03/14 04:13:59;;;;;;;0.63;0.63;;;;;;;9.88;96.13;98796.19;5071331;28;20089;-62
2023/03/14 04:16:25;;;;;;;0.70;0.70;;;;;;;9.85;97.42;98793.16;5089439;28;20040;-62
2023/03/14 04:18:50;;;;;;;0.77;0.77;;;;;;;9.77;97.45;98785.50;5078731;28;20042;-62
2023/03/14 04:21:16;;;;;;;0.80;0.80;;;;;;;9.68;99.46;98790.72;5067698;28;20116;-62
2023/03/14 04:23:42;;;;;;;0.60;0.60;;;;;;;9.67;100.00;98797.28;5070539;28;20119;-62
2023/03/14 04:26:07;;;;;;;1.02;0.80;;;;;;;9.64;100.00;98795.13;5085680;28;20040;-62
2023/03/14 04:28:32;;;;;;;0.60;0.60;;;;;;;9.57;100.00;98787.16;5067340;28;20040;-62
2023/03/14 04:30:57;;;;;;;0.60;0.60;;;;;;;9.56;100.00;98790.16;5073334;28;20149;-62
2023/03/14 04:33:23;;;;;;;0.60;0.60;;;;;;;9.55;100.00;98789.34;5087108;28;20113;-62
2023/03/14 04:35:49;;;;;;;0.60;0.60;;;;;;;9.55;100.00;98794.00;5088612;28;20020;-63
2023/03/14 04:38:16;;;;;;;0.60;0.60;;;;;;;9.54;100.00;98792.38;5061893;28;20033;-62
2023/03/14 04:40:42;;;;;;;0.60;0.60;;;;;;;9.53;100.00;98793.44;5082996;28;20134;-62
2023/03/14 04:43:11;;;;;;;0.70;0.70;;;;;;;9.49;100.00;98790.47;5080053;28;20060;-62
2023/03/14 04:45:37;;;;;;;0.60;0.60;;;;;;;9.49;100.00;98784.97;5067226;28;20041;-62
2023/03/14 04:48:02;;;;;;;0.60;0.60;;;;;;;9.47;100.00;98778.09;5067300;28;20028;-62
2023/03/14 04:50:28;;;;;;;0.60;0.60;;;;;;;9.52;100.00;98773.44;5083199;28;20036;-62
2023/03/14 04:52:53;;;;;;;0.60;0.60;;;;;;;9.50;100.00;98778.38;5088227;28;20051;-62
2023/03/14 04:55:18;;;;;;;0.70;0.70;;;;;;;9.54;100.00;98789.63;5068728;28;20489;-62
2023/03/14 04:57:44;;;;;;;0.77;0.70;;;;;;;9.41;100.00;98781.94;5067355;28;20025;-62
2023/03/14 05:00:11;;;;;;;0.55;0.55;;;;;;;9.34;100.00;98779.50;5086408;28;20020;-62
2023/03/14 05:02:37;;;;;;;0.52;0.52;;;;;;;9.32;100.00;98785.22;5087389;28;20036;-62
2023/03/14 05:05:02;;;;;;;0.63;0.63;;;;;;;9.25;100.00;98784.69;5071389;28;20032;-62
2023/03/14 05:07:27;;;;;;;0.50;0.50;;;;;;;9.24;100.00;98783.03;5084898;28;20073;-62
2023/03/14 05:09:53;;;;;;;1.08;0.60;;;;;;;9.16;100.00;98780.84;5079492;28;20028;-62
2023/03/14 05:12:19;;;;;;;0.60;0.60;;;;;;;9.09;100.00;98770.16;5078005;28;20047;-62
2023/03/14 05:14:45;;;;;;;0.50;0.50;;;;;;;8.99;100.00;98775.59;5079974;28;20707;-62
2023/03/14 05:17:11;;;;;;;0.63;0.63;;;;;;;8.92;100.00;98777.81;5066864;28;20028;-62
2023/03/14 05:19:36;;;;;;;0.60;0.60;;;;;;;8.93;100.00;98776.69;5067012;28;20024;-62
2023/03/14 05:22:02;;;;;;;0.70;0.70;;;;;;;8.83;100.00;98768.47;5067023;28;20035;-62
2023/03/14 05:24:27;;;;;;;0.70;0.70;;;;;;;8.82;100.00;98770.38;5066371;28;20024;-62
2023/03/14 05:26:53;;;;;;;0.50;0.50;;;;;;;8.83;100.00;98779.41;5066252;28;20044;-62
2023/03/14 05:29:18;;;;;;;0.70;0.70;;;;;;;8.83;100.00;98773.94;5066833;28;20468;-62
2023/03/14 05:31:43;;;;;;;0.60;0.60;;;;;;;8.87;100.00;98779.69;5080509;28;20379;-62
2023/03/14 05:34:08;;;;;;;0.60;0.60;;;;;;;8.84;100.00;98778.31;5069846;28;20029;-62
2023/03/14 05:36:34;;;;;;;0.60;0.60;;;;;;;8.88;100.00;98779.44;5067388;28;20017;-62
2023/03/14 05:38:59;;;;;;;0.60;0.60;;;;;;;8.91;100.00;98767.09;5070168;28;20036;-62
2023/03/14 05:41:24;;;;;;;0.60;0.60;;;;;;;8.91;100.00;98770.66;5066649;28;20127;-62
2023/03/14 05:43:49;;;;;;;0.70;0.70;;;;;;;8.90;100.00;98751.78;5074626;28;20028;-62
2023/03/14 05:46:15;;;;;;;0.60;0.60;;;;;;;8.88;100.00;98757.53;5076875;28;20071;-62
2023/03/14 05:48:40;;;;;;;0.70;0.70;;;;;;;8.87;100.00;98746.81;5065966;28;20036;-62
2023/03/14 05:51:06;;;;;;;0.60;0.60;;;;;;;8.85;100.00;98738.91;5068791;28;20035;-62
2023/03/14 05:53:31;;;;;;;0.60;0.60;;;;;;;8.87;100.00;98746.81;5069384;28;20028;-62
2023/03/14 05:55:57;;;;;;;0.60;0.60;;;;;;;8.85;100.00;98741.63;5077970;28;20034;-62
2023/03/14 05:58:23;;;;;;;0.73;0.70;;;;;;;8.87;100.00;98739.47;5067725;28;20067;-62
2023/03/14 06:00:48;;;;;;;1.40;0.60;;;;;;;8.88;100.00;98745.75;5068990;28;20028;-62
2023/03/14 06:03:14;;;;;;;1.35;0.70;;;;;;;8.89;100.00;98733.72;5086428;28;20031;-62
2023/03/14 06:05:39;;;;;;;1.20;0.68;;;;;;;8.92;100.00;98733.16;5072413;28;20077;-62
2023/03/14 06:08:04;;;;;;;0.70;0.70;;;;;;;8.91;100.00;98742.47;5080011;28;20030;-62
2023/03/14 06:10:30;;;;;;;0.65;0.60;;;;;;;8.95;100.00;98738.09;5082894;28;20166;-62
2023/03/14 06:12:55;;;;;;;0.60;0.60;;;;;;;8.91;100.00;98746.03;5068584;28;20028;-62
2023/03/14 06:15:20;;;;;;;0.70;0.70;;;;;;;8.98;100.00;98741.13;5084174;28;20036;-62
2023/03/14 06:17:46;;;;;;;0.70;0.70;;;;;;;9.00;100.00;98749.06;5075316;28;20028;-62
2023/03/14 06:20:12;;;;;;;0.70;0.70;;;;;;;9.02;100.00;98744.13;5085851;28;20059;-62
2023/03/14 06:22:38;;;;;;;0.75;0.75;;;;;;;9.02;100.00;98750.44;5074916;28;20037;-62
2023/03/14 06:25:04;;;;;;;0.70;0.70;;;;;;;8.99;100.00;98748.22;5066979;28;20035;-63
2023/03/14 06:27:29;;;;;;;0.60;0.60;;;;;;;9.04;100.00;98739.22;5084667;28;20032;-62
2023/03/14 06:29:54;;;;;;;0.60;0.60;;;;;;;9.04;100.00;98748.25;5073728;28;20458;-62
2023/03/14 06:32:20;;;;;;;0.80;0.80;;;;;;;9.06;100.00;98747.97;5078180;28;20040;-62
2023/03/14 06:34:45;;;;;;;0.75;0.75;;;;;;;9.05;100.00;98747.13;5085114;28;20027;-62
2023/03/14 06:37:11;;;;;;;0.70;0.70;;;;;;;9.08;100.00;98754.00;5071671;28;20520;-62
2023/03/14 06:39:38;;;;;;;0.60;0.60;;;;;;;9.10;100.00;98765.50;5075827;28;20409;-62
2023/03/14 06:42:03;;;;;;;0.60;0.60;;;;;;;9.16;100.00;98763.59;5065681;28;20119;-62
2023/03/14 06:44:29;;;;;;;0.60;0.60;;;;;;;9.17;100.00;98771.50;5069953;28;20466;-62
2023/03/14 06:46:54;;;;;;;0.70;0.70;;;;;;;9.20;100.00;98768.25;5081038;28;20027;-62
2023/03/14 06:49:19;;;;;;;0.65;0.65;;;;;;;9.26;100.00;98758.09;5084407;28;20048;-62
2023/03/14 06:51:44;;;;;;;0.63;0.63;;;;;;;9.35;100.00;98764.69;5085652;28;20024;-62
2023/03/14 06:54:10;;;;;;;0.65;0.65;;;;;;;9.46;100.00;98763.59;5090089;28;20078;-62
2023/03/14 06:56:35;;;;;;;0.60;0.60;;;;;;;9.43;100.00;98764.16;5085312;28;20028;-62
2023/03/14 06:59:00;;;;;;;0.68;0.68;;;;;;;9.43;100.00;98766.91;5088879;28;20509;-62
2023/03/14 07:01:28;;;;;;;0.70;0.70;;;;;;;9.43;100.00;98768.78;5076769;28;20055;-62
2023/03/14 07:03:53;;;;;;;0.90;0.60;;;;;;;9.43;100.00;98779.75;5069907;28;20016;-62
2023/03/14 07:06:19;;;;;;;0.50;0.50;;;;;;;9.47;100.00;98780.84;5057772;28;20017;-62
2023/03/14 07:08:44;;;;;;;0.80;0.50;;;;;;;9.44;100.00;98779.50;5070628;28;20075;-62
2023/03/14 07:11:10;;;;;;;0.52;0.52;;;;;;;9.47;100.00;98781.66;5066685;28;20033;-63
2023/03/14 07:13:37;;;;;;;0.60;0.60;;;;;;;9.43;100.00;98782.47;5062651;28;20029;-62
2023/03/14 07:16:02;;;;;;;0.60;0.60;;;;;;;9.35;100.00;98784.69;5069661;28;20047;-62
2023/03/14 07:18:28;;;;;;;0.70;0.70;;;;;;;9.32;100.00;98787.13;5066024;28;20024;-62
2023/03/14 07:20:53;;;;;;;0.60;0.60;;;;;;;9.28;100.00;98814.28;5067857;28;20050;-62
2023/03/14 07:23:18;;;;;;;0.80;0.80;;;;;;;9.25;100.00;98874.25;5070618;28;20028;-62
2023/03/14 07:25:43;;;;;;;0.60;0.60;;;;;;;8.84;100.00;98885.06;5069170;28;20040;-62
2023/03/14 07:28:09;;;;;;;0.50;0.50;;;;;;;8.39;100.00;98891.13;5068609;28;20021;-62
2023/03/14 07:30:34;;;;;;;0.50;0.50;;;;;;;8.13;100.00;98898.31;5070387;28;20515;-62
2023/03/14 07:33:00;;;;;;;0.60;0.60;;;;;;;7.91;100.00;98914.84;5070210;28;20037;-62
2023/03/14 07:35:25;;;;;;;0.60;0.60;;;;;;;7.77;100.00;98923.44;5070871;28;20020;-62
2023/03/14 07:37:50;;;;;;;0.57;0.57;;;;;;;7.72;100.00;98926.13;5068103;28;20032;-62
2023/03/14 07:40:16;;;;;;;0.50;0.50;;;;;;;7.69;100.00;98942.22;5069936;28;20033;-62
2023/03/14 07:42:42;;;;;;;0.50;0.50;;;;;;;7.63;100.00;98952.28;5069983;28;20021;-62
2023/03/14 07:45:09;;;;;;;0.60;0.60;;;;;;;7.58;100.00;98959.59;5070454;28;20029;-62
2023/03/14 07:47:34;;;;;;;0.52;0.52;;;;;;;7.49;100.00;98964.69;5067764;28;20029;-62
2023/03/14 07:50:00;;;;;;;0.63;0.63;;;;;;;7.47;100.00;98983.25;5070521;28;20031;-62
2023/03/14 07:52:25;;;;;;;0.60;0.60;;;;;;;7.46;100.00;98992.53;5072688;28;20386;-62
2023/03/14 07:54:50;;;;;;;0.60;0.60;;;;;;;7.40;100.00;98997.13;5068701;28;20162;-62
2023/03/14 07:57:16;;;;;;;0.70;0.70;;;;;;;7.42;100.00;98997.66;5073882;28;20641;-61
2023/03/14 07:59:41;;;;;;;0.50;0.50;;;;;;;7.40;100.00;99001.72;5077625;28;20107;-62
2023/03/14 08:02:11;;;;;;;0.60;0.60;;;;;;;7.42;100.00;99019.53;5072136;28;20136;-62
2023/03/14 08:04:37;;;;;;;0.60;0.60;;;;;;;7.45;100.00;99023.63;5070943;28;20029;-62
2023/03/14 08:07:02;;;;;;;0.70;0.70;;;;;;;7.48;100.00;99031.34;5068378;28;20583;-62
2023/03/14 08:09:28;;;;;;;0.70;0.70;;;;;;;7.43;100.00;99034.81;5063937;28;20029;-62
2023/03/14 08:11:53;;;;;;;0.70;0.70;;;;;;;7.40;100.00;99053.63;5066961;28;20467;-62
2023/03/14 08:14:18;;;;;;;0.63;0.63;;;;;;;7.41;100.00;99058.03;5066361;28;20082;-62
2023/03/14 08:16:44;;;;;;;0.60;0.60;;;;;;;7.45;100.00;99061.88;5067845;28;20028;-62
2023/03/14 08:19:09;;;;;;;0.60;0.60;;;;;;;7.40;100.00;99073.59;5068454;28;20088;-62
2023/03/14 08:21:34;;;;;;;0.70;0.70;;;;;;;7.46;100.00;99083.50;5069060;28;20040;-62
2023/03/14 08:24:00;;;;;;;0.60;0.60;;;;;;;7.53;100.00;99091.50;5077104;28;20113;-62
2023/03/14 08:26:25;;;;;;;0.60;0.60;;;;;;;7.61;100.00;99101.97;5069788;28;20033;-62
2023/03/14 08:28:51;;;;;;;0.70;0.70;;;;;;;7.71;100.00;99113.03;5068357;28;20429;-62
2023/03/14 08:31:16;;;;;;;0.60;0.60;;;;;;;7.71;100.00;99115.78;5073333;28;20047;-62
2023/03/14 08:33:42;;;;;;;0.63;0.63;;;;;;;7.76;100.00;99129.50;5077560;28;20020;-62
2023/03/14 08:36:07;;;;;;;0.60;0.60;;;;;;;7.79;100.00;99139.91;5081021;28;20103;-62
2023/03/14 08:38:33;;;;;;;0.60;0.60;;;;;;;7.81;100.00;99139.66;5073531;28;20111;-62
2023/03/14 08:41:00;;;;;;;0.50;0.50;;;;;;;7.82;100.00;99148.69;5069159;28;20094;-61
2023/03/14 08:43:26;;;;;;;0.55;0.55;;;;;;;7.85;100.00;99151.72;5071010;28;20034;-62
2023/03/14 08:45:51;;;;;;;0.50;0.50;;;;;;;7.82;100.00;99156.88;5058182;28;20450;-63
2023/03/14 08:48:16;;;;;;;0.70;0.70;;;;;;;7.71;100.00;99172.34;5067383;28;20040;-62
2023/03/14 08:50:42;;;;;;;0.70;0.70;;;;;;;7.62;100.00;99173.84;5068242;28;20028;-62
2023/03/14 08:53:07;;;;;;;0.60;0.60;;;;;;;7.56;100.00;99183.88;5069679;28;20028;-61
2023/03/14 08:55:32;;;;;;;1.50;0.70;;;;;;;7.52;100.00;99194.47;5068056;28;20089;-62
2023/03/14 08:57:57;;;;;;;0.60;0.60;;;;;;;7.53;100.00;99201.59;5067426;28;20025;-62
2023/03/14 09:00:23;;;;;;;0.75;0.75;;;;;;;7.51;100.00;99205.66;5067451;28;20037;-62
2023/03/14 09:02:48;;;;;;;0.85;0.85;;;;;;;7.56;100.00;99221.31;5062639;28;20451;-62
2023/03/14 09:05:14;;;;;;;0.70;0.70;;;;;;;7.45;100.00;99237.53;5075482;28;20227;-62
2023/03/14 09:07:40;;;;;;;0.68;0.68;;;;;;;7.38;100.00;99231.41;5067162;28;20027;-61
2023/03/14 09:10:07;;;;;;;0.60;0.60;;;;;;;7.27;100.00;99241.34;5068637;28;20024;-62
2023/03/14 09:12:33;;;;;;;;;;;;;;;7.37;100.00;99268.00;5078687;28;20082;-62
2023/03/14 09:14:59;;;;;;;0.60;0.60;;;;;;;7.23;100.00;99277.56;5054430;28;19992;-62
2023/03/14 09:17:24;;;;;;;0.60;0.60;;;;;;;7.25;100.00;99281.72;5047699;28;20283;-62
2023/03/14 09:19:49;;;;;;;0.70;0.70;;;;;;;7.24;100.00;99290.97;5048411;28;20074;-62
2023/03/14 09:22:15;;;;;;;0.65;0.65;;;;;;;7.23;100.00;99294.78;5053503;28;20105;-62
2023/03/14 09:24:41;;;;;;;0.60;0.60;;;;;;;7.26;100.00;99313.41;5068068;28;20040;-62
2023/03/14 09:27:07;;;;;;;0.70;0.70;;;;;;;7.20;100.00;99325.34;5067043;28;20027;-63
2023/03/14 09:29:33;;;;;;;0.60;0.60;;;;;;;7.08;100.00;99340.94;5067845;28;20037;-62
2023/03/14 09:31:58;;;;;;;0.60;0.60;;;;;;;7.05;100.00;99367.91;5063109;28;20440;-63
2023/03/14 09:34:24;;;;;;;0.63;0.63;;;;;;;7.05;100.00;99374.19;5066165;28;20064;-62
2023/03/14 09:36:49;;;;;;;0.60;0.60;;;;;;;7.07;100.00;99377.50;5065055;28;20044;-62
2023/03/14 09:39:16;;;;;;;0.60;0.60;;;;;;;6.97;100.00;99394.50;5066772;28;20120;-62
2023/03/14 09:41:46;;;;;;;0.60;0.60;;;;;;;6.74;100.00;99411.78;5065119;28;20072;-62
2023/03/14 09:44:21;;;;;;;0.60;0.60;;;;;;;6.67;100.00;99427.44;5058202;28;20033;-62
2023/03/14 09:46:50;;;;;;;0.70;0.70;;;;;;;6.78;100.00;99444.03;5060794;28;20031;-62
2023/03/14 09:49:24;;;;;;;0.60;0.60;;;;;;;6.93;100.00;99447.09;5052668;28;20108;-62
2023/03/14 09:51:53;;;;;;;0.70;0.70;;;;;;;7.23;100.00;99444.16;5067914;28;20056;-62
2023/03/14 09:54:49;;;;;;;0.60;0.60;;;;;;;7.99;100.00;99466.56;5069590;28;20059;-62
2023/03/14 09:57:18;;;;;;;0.60;0.60;;;;;;;8.78;98.28;99470.03;5056054;28;20144;-62
2023/03/14 09:59:45;;;;;;;1.10;0.70;;;;;;;9.11;97.06;99487.41;5067682;28;20059;-62
2023/03/14 10:02:14;;;;;;;0.60;0.60;;;;;;;9.28;96.59;99490.09;5064914;28;20037;-62
2023/03/14 10:04:44;;;;;;;0.60;0.60;;;;;;;9.09;93.84;99503.28;5068005;28;20025;-62
2023/03/14 10:07:19;;;;;;;0.90;0.70;;;;;;;9.07;95.41;99516.38;5065136;28;20111;-62
2023/03/14 10:09:47;;;;;;;0.50;0.50;;;;;;;8.98;92.49;99529.72;5066974;28;20024;-62
2023/03/14 10:12:13;;;;;;;0.70;0.70;;;;;;;8.81;92.91;99540.66;5067195;28;20024;-62
2023/03/14 10:14:50;;;;;;;0.60;0.60;;;;;;;8.57;94.05;99551.00;5053466;28;20035;-62
2023/03/14 10:17:17;;;;;;;0.70;0.70;;;;;;;8.28;96.14;99569.34;5063385;28;20472;-62
2023/03/14 10:19:59;;;;;;;0.75;0.70;;;;;;;8.23;97.81;99580.22;5070783;28;20016;-64
2023/03/14 10:22:29;;;;;;;0.70;0.70;;;;;;;8.15;96.46;99593.44;5067109;28;20025;-62
2023/03/14 10:24:59;;;;;;;0.73;0.70;;;;;;;8.02;96.07;99606.34;5073022;28;20470;-62
2023/03/14 10:27:31;;;;;;;0.75;0.75;;;;;;;7.98;96.86;99621.59;5045428;28;20029;-62
2023/03/14 10:30:06;;;;;;;0.88;0.77;;;;;;;7.83;96.21;99636.84;5064510;28;20387;-62
2023/03/14 10:32:35;;;;;;;0.70;0.70;;;;;;;7.54;97.46;99645.00;5065995;28;20032;-62
2023/03/14 10:35:08;;;;;;;1.10;0.90;;;;;;;7.50;98.20;99649.28;5061749;28;20044;-62
2023/03/14 10:37:34;;;;;;;1.08;0.80;;;;;;;7.61;97.45;99669.47;5058942;28;20031;-62
2023/03/14 10:40:05;;;;;;;0.90;0.90;;;;;;;7.87;95.18;99668.09;5054423;28;20029;-62
2023/03/14 10:42:41;;;;;;;1.00;0.85;;;;;;;8.18;93.57;99675.00;5067292;28;20390;-62
2023/03/14 10:45:41;;;;;;;0.95;0.85;;;;;;;8.63;93.78;99683.28;5050715;28;20036;-62
2023/03/14 10:48:32;;;;;;;0.80;0.80;;;;;;;9.05;91.71;99683.72;5043773;28;20045;-62
2023/03/14 10:51:07;;;;;;;1.08;0.82;;;;;;;9.50;87.94;99690.16;5067362;28;20383;-62
2023/03/14 10:53:47;;;;;;;1.10;0.80;;;;;;;9.72;87.26;99701.97;5051458;28;20032;-62
2023/03/14 10:56:22;;;;;;;1.77;1.08;;;;;;;9.68;84.16;99717.28;5066800;28;20029;-62
2023/03/14 10:58:53;;;;;;;1.00;0.80;;;;;;;9.61;83.55;99719.38;5065680;28;20037;-62
2023/03/14 11:01:32;;;;;;;1.02;0.90;;;;;;;9.66;84.10;99733.16;5063987;28;20120;-62
2023/03/14 11:04:15;;;;;;;1.38;1.00;;;;;;;9.97;85.44;99742.63;5051490;28;20507;-62
2023/03/14 11:07:01;;;;;;;1.25;0.90;;;;;;;10.13;83.46;99746.41;5066914;28;20045;-62
2023/03/14 11:09:41;;;;;;;0.80;0.80;;;;;;;9.72;79.42;99756.81;5065989;28;20043;-62
2023/03/14 11:12:16;;;;;;;1.67;1.00;;;;;;;9.38;82.40;99772.47;5054603;28;20133;-62
2023/03/14 11:14:49;;;;;;;1.52;1.00;;;;;;;8.96;83.09;99785.69;5066957;28;20040;-61
2023/03/14 11:17:14;;;;;;;1.15;0.93;;;;;;;8.77;85.77;99793.31;5058099;28;20045;-62
2023/03/14 11:19:52;;;;;;;1.00;0.80;;;;;;;8.64;87.30;99821.78;5078445;28;20027;-62
2023/03/14 11:22:41;;;;;;;0.77;0.77;;;;;;;8.28;90.21;99837.44;5052285;28;20486;-62
2023/03/14 11:25:26;;;;;;;1.02;0.90;;;;;;;7.80;89.96;99852.19;5067102;28;20021;-62
2023/03/14 11:28:15;;;;;;;1.30;1.08;;;;;;;7.37;88.15;99857.13;5067373;28;20040;-62
2023/03/14 11:30:59;;;;;;;1.77;1.23;;;;;;;7.28;91.90;99862.09;5067282;28;20032;-62
2023/03/14 11:33:32;;;;;;;1.30;1.10;;;;;;;7.32;88.82;99870.66;5069999;28;20434;-62
2023/03/14 11:36:03;;;;;;;1.60;1.00;;;;;;;7.43;87.93;99875.31;5070719;28;20397;-61
2023/03/14 11:38:46;;;;;;;1.38;1.00;;;;;;;7.57;89.30;99884.97;5063742;28;20037;-62